Time;durP1;ratioP1;P1;durP2;ratioP2;P2;SDS_P1;SDS_P2;PMS_P1;PMS_P2;Temp;Humidity;BMP_temperature;BMP_pressure;BME280_temperature;BME280_humidity;BME280_pressure;Samples;Min_cycle;Max_cycle;Signal;HPM_P1;HPM_P2
2021/04/11 00:00:45;;;;;;;15.93;5.25;;;;;;;;;;4991516;28;20034;-86
2021/04/11 00:03:13;;;;;;;10.65;5.03;;;;;;;;;;4992718;28;20056;-82
2021/04/11 00:05:40;;;;;;;10.70;5.57;;;;;;;;;;4974777;28;20026;-79
2021/04/11 00:08:07;;;;;;;10.20;5.28;;;;;;;;;;4992661;28;20057;-78
2021/04/11 00:10:35;;;;;;;12.15;5.43;;;;;;;;;;4975041;28;20018;-82
2021/04/11 00:13:03;;;;;;;12.23;5.47;;;;;;;;;;4974980;28;20027;-77
2021/04/11 00:15:29;;;;;;;10.65;5.35;;;;;;;;;;4974680;28;20038;-81
2021/04/11 00:17:55;;;;;;;11.35;6.10;;;;;;;;;;4975534;28;20026;-84
2021/04/11 00:20:22;;;;;;;11.73;5.55;;;;;;;;;;4975596;28;20383;-83
2021/04/11 00:22:51;;;;;;;13.50;6.18;;;;;;;;;;4971567;28;20157;-87
2021/04/11 00:25:18;;;;;;;14.27;6.00;;;;;;;;;;4972808;28;20500;-78
2021/04/11 00:27:45;;;;;;;11.75;5.95;;;;;;;;;;4972769;28;20022;-81
2021/04/11 00:30:11;;;;;;;12.38;6.65;;;;;;;;;;4972689;28;20031;-76
2021/04/11 00:32:38;;;;;;;12.15;6.40;;;;;;;;;;4956246;28;20376;-81
2021/04/11 00:35:04;;;;;;;13.55;6.82;;;;;;;;;;4973259;28;20511;-78
2021/04/11 00:37:30;;;;;;;15.55;6.90;;;;;;;;;;4972783;28;20798;-79
2021/04/11 00:40:00;;;;;;;12.88;7.18;;;;;;;;;;4973274;28;20031;-84
2021/04/11 00:42:33;;;;;;;16.20;6.38;;;;;;;;;;4972755;28;20110;-76
2021/04/11 00:45:11;;;;;;;12.48;6.57;;;;;;;;;;4976452;28;20026;-82
2021/04/11 00:47:38;;;;;;;11.10;5.72;;;;;;;;;;4975782;28;20030;-80
2021/04/11 00:50:05;;;;;;;10.15;5.32;;;;;;;;;;4955499;28;20027;-80
2021/04/11 00:52:31;;;;;;;13.80;6.45;;;;;;;;;;4955397;28;20031;-82
2021/04/11 00:54:57;;;;;;;12.85;5.85;;;;;;;;;;4972692;28;20066;-81
2021/04/11 00:57:23;;;;;;;13.15;6.30;;;;;;;;;;4955267;28;20030;-75
2021/04/11 00:59:50;;;;;;;11.00;6.05;;;;;;;;;;4972579;28;20431;-83
2021/04/11 01:02:16;;;;;;;12.80;6.40;;;;;;;;;;4956570;28;20086;-75
2021/04/11 01:04:42;;;;;;;11.80;5.85;;;;;;;;;;4972656;28;20034;-82
2021/04/11 01:07:10;;;;;;;10.63;6.10;;;;;;;;;;4955858;28;20019;-83
2021/04/11 01:09:38;;;;;;;10.73;5.80;;;;;;;;;;4970966;28;20037;-76
2021/04/11 01:12:06;;;;;;;13.38;5.78;;;;;;;;;;4971619;28;20019;-85
2021/04/11 01:14:33;;;;;;;12.18;6.00;;;;;;;;;;4971507;28;20066;-74
2021/04/11 01:17:00;;;;;;;11.70;6.35;;;;;;;;;;4973831;28;20158;-78
2021/04/11 01:19:34;;;;;;;13.55;5.82;;;;;;;;;;4976133;28;20105;-81
2021/04/11 01:22:12;;;;;;;15.82;5.82;;;;;;;;;;4985971;28;20046;-78
2021/04/11 01:24:46;;;;;;;10.43;5.60;;;;;;;;;;4994620;28;20085;-81
2021/04/11 01:27:18;;;;;;;10.82;6.25;;;;;;;;;;4978170;28;20026;-81
2021/04/11 01:29:45;;;;;;;13.25;5.75;;;;;;;;;;4995963;28;20023;-77
2021/04/11 01:32:12;;;;;;;11.63;5.97;;;;;;;;;;4996081;28;20019;-79
2021/04/11 01:34:39;;;;;;;11.70;5.68;;;;;;;;;;4995803;28;20026;-77
2021/04/11 01:37:06;;;;;;;15.05;6.32;;;;;;;;;;4978423;28;20026;-79
2021/04/11 01:39:35;;;;;;;15.25;5.90;;;;;;;;;;4995068;28;20034;-79
2021/04/11 01:42:02;;;;;;;12.05;6.05;;;;;;;;;;4977563;28;20030;-77
2021/04/11 01:44:31;;;;;;;10.27;5.57;;;;;;;;;;4978107;28;20484;-77
2021/04/11 01:46:57;;;;;;;11.13;5.35;;;;;;;;;;4995073;28;20015;-77
2021/04/11 01:49:24;;;;;;;10.98;5.80;;;;;;;;;;4977522;28;20117;-76
2021/04/11 01:51:56;;;;;;;15.25;5.90;;;;;;;;;;4977413;28;20028;-79
2021/04/11 01:54:24;;;;;;;11.65;5.95;;;;;;;;;;4978593;28;20399;-79
2021/04/11 01:56:50;;;;;;;10.38;6.00;;;;;;;;;;4986454;28;20033;-78
2021/04/11 01:59:20;;;;;;;11.18;5.72;;;;;;;;;;5006230;28;20030;-79
2021/04/11 02:01:48;;;;;;;12.40;6.18;;;;;;;;;;4993389;28;20076;-80
2021/04/11 02:04:15;;;;;;;11.95;6.30;;;;;;;;;;4996512;28;20032;-77
2021/04/11 02:06:43;;;;;;;22.70;7.10;;;;;;;;;;5013950;28;20033;-77
2021/04/11 02:09:10;;;;;;;19.20;6.80;;;;;;;;;;5008303;28;20022;-79
2021/04/11 02:11:37;;;;;;;34.35;7.95;;;;;;;;;;4981655;28;20109;-78
2021/04/11 02:14:03;;;;;;;28.95;6.53;;;;;;;;;;4998013;28;20026;-78
2021/04/11 02:16:33;;;;;;;15.20;7.18;;;;;;;;;;4991218;28;20026;-78
2021/04/11 02:19:28;;;;;;;20.30;7.15;;;;;;;;;;4995344;28;20029;-78
2021/04/11 02:21:59;;;;;;;14.25;6.47;;;;;;;;;;4972083;28;20058;-78
2021/04/11 02:24:26;;;;;;;20.98;6.78;;;;;;;;;;4973598;28;20022;-79
2021/04/11 02:26:53;;;;;;;14.88;6.82;;;;;;;;;;4973572;28;20031;-78
2021/04/11 02:29:21;;;;;;;13.52;6.63;;;;;;;;;;4973716;28;20029;-77
2021/04/11 02:31:47;;;;;;;14.68;5.95;;;;;;;;;;4988811;28;20502;-79
2021/04/11 02:34:19;;;;;;;11.88;5.82;;;;;;;;;;4974719;28;20043;-78
2021/04/11 02:36:49;;;;;;;13.35;6.00;;;;;;;;;;4990053;28;20035;-82
2021/04/11 02:39:18;;;;;;;15.90;6.63;;;;;;;;;;4989599;28;20275;-82
2021/04/11 02:41:44;;;;;;;12.82;5.80;;;;;;;;;;4989391;28;20092;-78
2021/04/11 02:44:11;;;;;;;12.57;5.90;;;;;;;;;;4989191;28;20508;-78
2021/04/11 02:46:38;;;;;;;12.95;5.63;;;;;;;;;;4974226;28;20031;-79
2021/04/11 02:49:05;;;;;;;9.90;5.25;;;;;;;;;;4989346;28;20022;-78
2021/04/11 02:51:32;;;;;;;12.88;5.40;;;;;;;;;;4974585;28;20053;-78
2021/04/11 02:54:00;;;;;;;9.60;5.30;;;;;;;;;;4974027;28;20483;-78
2021/04/11 02:56:27;;;;;;;17.48;5.38;;;;;;;;;;4992404;28;20034;-77
2021/04/11 02:58:54;;;;;;;11.27;4.90;;;;;;;;;;4976216;28;20029;-78
2021/04/11 03:01:24;;;;;;;9.50;4.95;;;;;;;;;;4976179;28;20040;-83
2021/04/11 03:03:50;;;;;;;11.57;5.32;;;;;;;;;;4993701;28;20022;-81
2021/04/11 03:06:18;;;;;;;11.77;5.63;;;;;;;;;;4975817;28;20026;-80
2021/04/11 03:08:46;;;;;;;12.85;4.90;;;;;;;;;;4993439;28;20037;-78
2021/04/11 03:11:24;;;;;;;11.98;5.32;;;;;;;;;;4993444;28;20032;-78
2021/04/11 03:13:51;;;;;;;13.23;5.22;;;;;;;;;;4993486;28;20022;-78
2021/04/11 03:16:17;;;;;;;11.07;4.72;;;;;;;;;;4976035;28;20042;-78
2021/04/11 03:18:44;;;;;;;13.50;5.55;;;;;;;;;;4993272;28;20018;-78
2021/04/11 03:21:10;;;;;;;11.57;5.20;;;;;;;;;;4992829;28;20046;-78
2021/04/11 03:23:37;;;;;;;11.25;5.32;;;;;;;;;;4975746;28;20026;-78
2021/04/11 03:26:26;;;;;;;16.55;5.60;;;;;;;;;;4993147;28;20375;-78
2021/04/11 03:28:56;;;;;;;12.15;5.28;;;;;;;;;;4975665;28;20034;-78
2021/04/11 03:31:29;;;;;;;11.38;4.97;;;;;;;;;;4993139;28;20094;-78
2021/04/11 03:33:55;;;;;;;;;;;;;;;;;;4993633;28;20501;-79
2021/04/11 03:36:22;;;;;;;11.00;5.20;;;;;;;;;;4992871;28;19914;-79
2021/04/11 03:38:49;;;;;;;11.70;4.72;;;;;;;;;;4992740;28;20019;-86
2021/04/11 03:41:16;;;;;;;9.25;4.85;;;;;;;;;;4975284;28;20514;-77
2021/04/11 03:43:53;;;;;;;11.52;5.45;;;;;;;;;;4992742;28;20472;-79
2021/04/11 03:46:23;;;;;;;9.52;5.70;;;;;;;;;;4992916;28;20027;-79
2021/04/11 03:49:02;;;;;;;10.88;5.10;;;;;;;;;;4975396;28;20033;-78
2021/04/11 03:51:30;;;;;;;14.13;5.70;;;;;;;;;;4975324;28;20029;-78
2021/04/11 03:53:59;;;;;;;11.18;5.30;;;;;;;;;;4992619;28;20030;-82
2021/04/11 03:56:35;;;;;;;13.27;5.75;;;;;;;;;;4974941;28;20034;-78
2021/04/11 03:59:03;;;;;;;11.45;5.38;;;;;;;;;;4992763;28;20476;-80
2021/04/11 04:01:32;;;;;;;10.65;5.47;;;;;;;;;;4974861;28;20065;-78
2021/04/11 04:04:04;;;;;;;10.38;5.00;;;;;;;;;;4992625;28;20026;-78
2021/04/11 04:06:32;;;;;;;9.48;5.07;;;;;;;;;;4974919;28;20357;-78
2021/04/11 04:08:59;;;;;;;10.60;5.18;;;;;;;;;;4992294;28;20026;-79
2021/04/11 04:11:25;;;;;;;10.95;5.43;;;;;;;;;;4974806;28;20026;-78
2021/04/11 04:14:00;;;;;;;9.10;4.72;;;;;;;;;;4974054;28;20077;-79
2021/04/11 04:16:26;;;;;;;11.00;5.10;;;;;;;;;;4974833;28;20495;-78
2021/04/11 04:18:58;;;;;;;13.45;5.20;;;;;;;;;;4992046;28;20130;-78
2021/04/11 04:21:43;;;;;;;9.35;4.70;;;;;;;;;;4991576;28;20146;-81
2021/04/11 04:24:09;;;;;;;12.57;5.13;;;;;;;;;;4974569;28;20022;-79
2021/04/11 04:26:41;;;;;;;11.23;4.95;;;;;;;;;;4991927;28;20105;-78
2021/04/11 04:29:27;;;;;;;10.50;5.20;;;;;;;;;;4974458;28;20032;-79
2021/04/11 04:31:55;;;;;;;8.82;4.25;;;;;;;;;;4972718;28;20030;-78
2021/04/11 04:34:29;;;;;;;9.88;4.88;;;;;;;;;;4963425;28;20030;-78
2021/04/11 04:37:02;;;;;;;8.50;4.20;;;;;;;;;;4991895;28;20038;-78
2021/04/11 04:39:34;;;;;;;11.50;4.88;;;;;;;;;;4974383;28;20483;-79
2021/04/11 04:42:12;;;;;;;7.68;3.90;;;;;;;;;;4974593;28;20034;-78
2021/04/11 04:44:38;;;;;;;10.85;4.90;;;;;;;;;;4974637;28;20058;-78
2021/04/11 04:47:04;;;;;;;10.80;4.22;;;;;;;;;;4974422;28;20369;-78
2021/04/11 04:49:43;;;;;;;8.30;4.10;;;;;;;;;;4974537;28;20083;-78
2021/04/11 04:52:12;;;;;;;10.93;4.38;;;;;;;;;;4997506;28;20111;-78
2021/04/11 04:54:45;;;;;;;9.20;4.07;;;;;;;;;;4998568;28;20030;-77
2021/04/11 04:57:13;;;;;;;8.95;4.22;;;;;;;;;;4981038;28;20115;-78
2021/04/11 04:59:48;;;;;;;13.88;4.88;;;;;;;;;;4980823;28;20621;-78
2021/04/11 05:02:15;;;;;;;10.27;4.43;;;;;;;;;;4998398;28;20030;-80
2021/04/11 05:04:45;;;;;;;9.60;4.05;;;;;;;;;;4980641;28;20031;-78
2021/04/11 05:07:14;;;;;;;9.48;4.10;;;;;;;;;;4998083;28;20485;-78
2021/04/11 05:09:48;;;;;;;9.98;4.47;;;;;;;;;;4980822;28;20486;-81
2021/04/11 05:12:24;;;;;;;10.93;4.20;;;;;;;;;;4998426;28;20027;-78
2021/04/11 05:14:52;;;;;;;10.85;4.45;;;;;;;;;;4980471;28;20038;-79
2021/04/11 05:17:39;;;;;;;8.25;3.92;;;;;;;;;;4997788;28;20042;-78
2021/04/11 05:20:13;;;;;;;9.38;4.22;;;;;;;;;;4980499;28;20029;-77
2021/04/11 05:22:42;;;;;;;8.02;4.43;;;;;;;;;;4978307;28;20532;-78
2021/04/11 05:25:13;;;;;;;9.57;4.07;;;;;;;;;;4978845;28;20054;-78
2021/04/11 05:27:55;;;;;;;9.90;4.00;;;;;;;;;;4978700;28;20043;-78
2021/04/11 05:30:32;;;;;;;7.03;3.88;;;;;;;;;;4977145;28;20357;-77
2021/04/11 05:32:58;;;;;;;11.10;4.90;;;;;;;;;;4978449;28;20031;-80
2021/04/11 05:35:25;;;;;;;9.70;3.85;;;;;;;;;;4978339;28;20448;-77
2021/04/11 05:37:57;;;;;;;7.55;3.80;;;;;;;;;;4985267;28;20022;-78
2021/04/11 05:40:27;;;;;;;10.57;4.32;;;;;;;;;;4998109;28;20026;-77
2021/04/11 05:43:08;;;;;;;8.60;3.72;;;;;;;;;;4980289;28;20026;-77
2021/04/11 05:45:42;;;;;;;9.18;3.60;;;;;;;;;;4997699;28;20486;-77
2021/04/11 05:48:08;;;;;;;11.57;4.50;;;;;;;;;;4980374;28;20027;-78
2021/04/11 05:50:38;;;;;;;8.40;3.75;;;;;;;;;;4980070;28;20657;-78
2021/04/11 05:53:25;;;;;;;7.47;4.03;;;;;;;;;;4980260;28;20018;-78
2021/04/11 05:55:56;;;;;;;8.10;3.30;;;;;;;;;;4979885;28;20038;-78
2021/04/11 05:58:23;;;;;;;9.13;3.75;;;;;;;;;;4980246;28;20080;-80
2021/04/11 06:00:55;;;;;;;8.05;3.65;;;;;;;;;;4980396;28;20113;-77
2021/04/11 06:03:24;;;;;;;7.78;3.28;;;;;;;;;;4976444;28;20410;-78
2021/04/11 06:06:02;;;;;;;9.15;3.60;;;;;;;;;;4993845;28;20109;-77
2021/04/11 06:08:31;;;;;;;9.77;3.63;;;;;;;;;;4976633;28;20121;-78
2021/04/11 06:11:02;;;;;;;7.47;3.25;;;;;;;;;;4976264;28;20061;-78
2021/04/11 06:13:32;;;;;;;8.88;3.40;;;;;;;;;;4993750;28;20033;-79
2021/04/11 06:16:05;;;;;;;8.60;3.30;;;;;;;;;;4976354;28;20034;-78
2021/04/11 06:18:31;;;;;;;8.50;4.22;;;;;;;;;;4976009;28;20113;-77
2021/04/11 06:20:58;;;;;;;7.88;3.38;;;;;;;;;;4976300;28;20053;-78
2021/04/11 06:23:27;;;;;;;7.90;3.60;;;;;;;;;;4994671;28;20026;-78
2021/04/11 06:26:02;;;;;;;9.48;3.22;;;;;;;;;;4994479;28;20052;-77
2021/04/11 06:28:36;;;;;;;10.18;3.53;;;;;;;;;;4976128;28;20035;-77
2021/04/11 06:31:04;;;;;;;6.93;3.17;;;;;;;;;;4976372;28;20026;-77
2021/04/11 06:33:30;;;;;;;7.10;3.20;;;;;;;;;;4976298;28;20049;-77
2021/04/11 06:35:59;;;;;;;8.23;3.38;;;;;;;;;;4976828;28;20100;-78
2021/04/11 06:38:27;;;;;;;6.10;3.05;;;;;;;;;;4976552;28;20030;-77
2021/04/11 06:41:05;;;;;;;9.20;3.90;;;;;;;;;;4976355;28;20022;-77
2021/04/11 06:43:37;;;;;;;9.88;3.55;;;;;;;;;;4993816;28;20034;-77
2021/04/11 06:46:14;;;;;;;8.27;3.45;;;;;;;;;;4993773;28;20041;-77
2021/04/11 06:48:46;;;;;;;6.68;3.45;;;;;;;;;;4994018;28;20021;-77
2021/04/11 06:51:28;;;;;;;6.60;3.25;;;;;;;;;;4993747;28;20055;-78
2021/04/11 06:54:03;;;;;;;8.87;3.90;;;;;;;;;;4993571;28;20070;-78
2021/04/11 06:56:32;;;;;;;7.65;3.75;;;;;;;;;;4976198;28;20403;-77
2021/04/11 06:59:14;;;;;;;8.85;3.33;;;;;;;;;;4993479;28;20073;-77
2021/04/11 07:01:46;;;;;;;7.38;3.05;;;;;;;;;;4993473;28;20080;-77
2021/04/11 07:04:27;;;;;;;7.13;2.90;;;;;;;;;;4993435;28;20023;-81
2021/04/11 07:07:11;;;;;;;7.70;2.80;;;;;;;;;;4981407;28;20081;-78
2021/04/11 07:09:56;;;;;;;5.93;2.58;;;;;;;;;;4993473;28;20068;-79
2021/04/11 07:12:41;;;;;;;6.53;2.65;;;;;;;;;;4975664;28;20026;-78
2021/04/11 07:15:15;;;;;;;8.25;2.90;;;;;;;;;;4992964;28;20034;-77
2021/04/11 07:17:44;;;;;;;5.47;2.45;;;;;;;;;;4975744;28;20037;-83
2021/04/11 07:20:20;;;;;;;6.15;2.85;;;;;;;;;;4993148;28;20459;-77
2021/04/11 07:23:04;;;;;;;7.93;2.63;;;;;;;;;;4992827;28;20054;-77
2021/04/11 07:25:42;;;;;;;6.60;2.50;;;;;;;;;;4993003;28;20494;-78
2021/04/11 07:28:18;;;;;;;5.40;2.50;;;;;;;;;;4992892;28;20023;-79
2021/04/11 07:30:50;;;;;;;6.60;2.38;;;;;;;;;;4975686;28;20514;-77
2021/04/11 07:33:34;;;;;;;8.43;2.90;;;;;;;;;;4975839;28;20084;-83
2021/04/11 07:36:10;;;;;;;6.03;2.90;;;;;;;;;;4993026;28;20104;-79
2021/04/11 07:38:39;;;;;;;4.35;2.13;;;;;;;;;;4972349;28;20027;-78
2021/04/11 07:41:13;;;;;;;6.60;2.30;;;;;;;;;;4955992;28;20031;-77
2021/04/11 07:43:39;;;;;;;6.93;2.50;;;;;;;;;;4956194;28;20027;-77
2021/04/11 07:46:17;;;;;;;6.25;2.60;;;;;;;;;;4973407;28;20023;-78
2021/04/11 07:49:04;;;;;;;4.75;2.20;;;;;;;;;;4955681;28;20019;-77
2021/04/11 07:51:30;;;;;;;6.53;2.53;;;;;;;;;;4955783;28;20019;-78
2021/04/11 07:54:08;;;;;;;4.90;2.05;;;;;;;;;;4962423;28;20026;-78
2021/04/11 07:56:50;;;;;;;4.80;2.15;;;;;;;;;;4992561;28;20175;-77
2021/04/11 07:59:16;;;;;;;4.32;2.08;;;;;;;;;;4992632;28;20037;-77
2021/04/11 08:01:55;;;;;;;6.72;2.40;;;;;;;;;;4995293;28;20558;-77
2021/04/11 08:04:39;;;;;;;6.03;2.40;;;;;;;;;;4998170;28;20430;-78
2021/04/11 08:07:24;;;;;;;6.30;2.05;;;;;;;;;;4991739;28;20065;-79
2021/04/11 08:10:10;;;;;;;8.52;2.17;;;;;;;;;;4974783;28;20057;-78
2021/04/11 08:12:36;;;;;;;7.00;2.90;;;;;;;;;;4935912;28;20429;-78
2021/04/11 08:15:20;;;;;;;7.03;2.15;;;;;;;;;;4972608;28;20082;-79
2021/04/11 08:17:49;;;;;;;7.90;2.67;;;;;;;;;;4955269;28;20039;-78
2021/04/11 08:20:30;;;;;;;6.50;2.33;;;;;;;;;;4955161;28;20025;-78
2021/04/11 08:23:15;;;;;;;12.13;2.72;;;;;;;;;;4968772;28;20189;-78
2021/04/11 08:25:51;;;;;;;7.22;2.67;;;;;;;;;;4970926;28;20128;-78
2021/04/11 08:28:26;;;;;;;6.95;1.98;;;;;;;;;;4982635;28;20049;-77
2021/04/11 08:30:55;;;;;;;5.43;2.13;;;;;;;;;;4974286;28;20030;-78
2021/04/11 08:33:33;;;;;;;7.97;2.17;;;;;;;;;;4991857;28;20090;-77
2021/04/11 08:36:05;;;;;;;6.15;2.20;;;;;;;;;;4974488;28;20061;-77
2021/04/11 08:38:34;;;;;;;7.10;2.20;;;;;;;;;;4991979;28;20023;-78
2021/04/11 08:41:03;;;;;;;6.18;2.03;;;;;;;;;;4974459;28;20038;-78
2021/04/11 08:43:29;;;;;;;5.32;1.95;;;;;;;;;;4974336;28;20029;-77
2021/04/11 08:45:55;;;;;;;5.18;1.88;;;;;;;;;;4974333;28;20026;-77
2021/04/11 08:48:24;;;;;;;5.95;2.08;;;;;;;;;;4974445;28;20101;-77
2021/04/11 08:50:53;;;;;;;5.70;2.05;;;;;;;;;;4974348;28;20026;-77
2021/04/11 08:53:19;;;;;;;7.72;2.83;;;;;;;;;;4974157;28;20022;-77
2021/04/11 08:55:55;;;;;;;6.05;2.20;;;;;;;;;;4975541;28;20035;-77
2021/04/11 08:58:37;;;;;;;6.70;1.90;;;;;;;;;;4974365;28;20030;-77
2021/04/11 09:01:06;;;;;;;6.38;1.70;;;;;;;;;;4981869;28;20018;-76
2021/04/11 09:03:40;;;;;;;5.85;1.80;;;;;;;;;;5000514;28;20058;-76
2021/04/11 09:06:11;;;;;;;7.93;1.60;;;;;;;;;;4991963;28;20169;-77
2021/04/11 09:08:52;;;;;;;4.82;1.77;;;;;;;;;;4991691;28;20030;-77
2021/04/11 09:11:37;;;;;;;4.82;1.77;;;;;;;;;;4994167;28;20494;-78
2021/04/11 09:14:03;;;;;;;5.85;1.90;;;;;;;;;;4991351;28;20514;-78
2021/04/11 09:16:38;;;;;;;4.95;1.58;;;;;;;;;;4973921;28;20062;-77
2021/04/11 09:19:07;;;;;;;4.10;1.77;;;;;;;;;;4991397;28;20023;-77
2021/04/11 09:21:33;;;;;;;5.68;1.70;;;;;;;;;;4991350;28;20471;-77
2021/04/11 09:24:11;;;;;;;7.45;1.65;;;;;;;;;;4974245;28;20029;-77
2021/04/11 09:26:56;;;;;;;4.18;1.60;;;;;;;;;;4973929;28;20026;-77
2021/04/11 09:29:34;;;;;;;6.05;1.65;;;;;;;;;;4991425;28;20042;-76
2021/04/11 09:32:06;;;;;;;6.63;2.13;;;;;;;;;;4973952;28;20022;-77
2021/04/11 09:34:47;;;;;;;5.00;1.88;;;;;;;;;;4991593;28;20089;-77
2021/04/11 09:37:40;;;;;;;5.57;1.60;;;;;;;;;;4992407;28;20113;-77
2021/04/11 09:40:11;;;;;;;5.32;1.33;;;;;;;;;;4955506;28;20089;-78
2021/04/11 09:42:56;;;;;;;5.22;1.65;;;;;;;;;;4977727;28;20018;-77
2021/04/11 09:45:32;;;;;;;4.43;1.60;;;;;;;;;;4977444;28;20494;-77
2021/04/11 09:48:16;;;;;;;5.88;1.55;;;;;;;;;;4977475;28;20026;-79
2021/04/11 09:50:48;;;;;;;5.03;1.73;;;;;;;;;;4977273;28;20029;-77
2021/04/11 09:53:14;;;;;;;4.65;1.58;;;;;;;;;;4994732;28;20046;-78
2021/04/11 09:55:42;;;;;;;7.00;1.60;;;;;;;;;;4994605;28;20038;-77
2021/04/11 09:58:27;;;;;;;5.40;1.60;;;;;;;;;;4977400;28;20021;-78
2021/04/11 10:01:02;;;;;;;3.60;1.23;;;;;;;;;;4977074;28;20045;-77
2021/04/11 10:03:31;;;;;;;6.60;1.40;;;;;;;;;;4979548;28;20034;-76
2021/04/11 10:06:16;;;;;;;3.50;1.40;;;;;;;;;;5010931;28;20069;-78
2021/04/11 10:08:45;;;;;;;3.97;1.65;;;;;;;;;;4977164;28;20033;-78
2021/04/11 10:11:31;;;;;;;4.57;1.70;;;;;;;;;;4976968;28;20034;-78
2021/04/11 10:14:02;;;;;;;3.47;1.40;;;;;;;;;;4977052;28;20038;-78
2021/04/11 10:16:35;;;;;;;5.50;1.50;;;;;;;;;;4994294;28;20070;-78
2021/04/11 10:19:25;;;;;;;3.35;1.42;;;;;;;;;;4976953;28;20472;-78
2021/04/11 10:22:00;;;;;;;3.47;1.40;;;;;;;;;;4983874;28;20055;-78
2021/04/11 10:24:33;;;;;;;5.75;1.70;;;;;;;;;;4994934;28;20076;-77
2021/04/11 10:26:59;;;;;;;3.88;1.38;;;;;;;;;;4994342;28;20023;-77
2021/04/11 10:29:26;;;;;;;5.50;2.00;;;;;;;;;;4976757;28;20032;-77
2021/04/11 10:32:22;;;;;;;4.07;1.55;;;;;;;;;;4976901;28;20084;-77
2021/04/11 10:34:56;;;;;;;3.92;1.40;;;;;;;;;;4924439;28;20052;-78
2021/04/11 10:37:28;;;;;;;3.67;1.60;;;;;;;;;;4994422;28;20027;-81
2021/04/11 10:40:00;;;;;;;4.85;1.83;;;;;;;;;;4977197;28;20503;-80
2021/04/11 10:42:36;;;;;;;4.97;1.50;;;;;;;;;;4976709;28;20033;-78
2021/04/11 10:45:21;;;;;;;4.88;1.50;;;;;;;;;;4976207;28;20605;-77
2021/04/11 10:48:00;;;;;;;8.70;1.70;;;;;;;;;;4976493;28;20026;-77
2021/04/11 10:50:45;;;;;;;4.32;1.50;;;;;;;;;;4973778;28;20175;-77
2021/04/11 10:53:11;;;;;;;6.07;1.42;;;;;;;;;;4956813;28;20035;-77
2021/04/11 10:55:56;;;;;;;5.20;1.65;;;;;;;;;;4969100;28;20100;-77
2021/04/11 10:58:25;;;;;;;7.50;1.52;;;;;;;;;;4984563;28;20047;-78
2021/04/11 11:00:54;;;;;;;4.50;1.38;;;;;;;;;;4990107;28;20554;-77
2021/04/11 11:03:23;;;;;;;4.10;1.67;;;;;;;;;;5007674;28;20038;-76
2021/04/11 11:06:25;;;;;;;3.70;1.50;;;;;;;;;;4982552;28;20431;-77
2021/04/11 11:09:10;;;;;;;5.07;2.17;;;;;;;;;;4916058;29;20201;-77
2021/04/11 11:11:55;;;;;;;6.13;2.05;;;;;;;;;;4980429;28;20196;-78
2021/04/11 11:14:38;;;;;;;6.57;2.40;;;;;;;;;;4981334;28;20021;-77
2021/04/11 11:17:10;;;;;;;13.88;2.53;;;;;;;;;;4974001;28;20031;-79
2021/04/11 11:19:51;;;;;;;7.90;1.90;;;;;;;;;;4971919;28;20019;-80
2021/04/11 11:22:38;;;;;;;7.72;2.38;;;;;;;;;;4973296;28;20134;-77
2021/04/11 11:25:13;;;;;;;10.88;2.10;;;;;;;;;;4973659;28;20046;-77
2021/04/11 11:27:51;;;;;;;8.82;2.17;;;;;;;;;;4984066;28;20022;-76
2021/04/11 11:30:27;;;;;;;5.80;2.40;;;;;;;;;;4984430;28;20084;-78
2021/04/11 11:33:10;;;;;;;5.68;2.10;;;;;;;;;;4997599;28;20018;-76
2021/04/11 11:36:03;;;;;;;6.55;2.47;;;;;;;;;;4984724;28;20061;-76
2021/04/11 11:38:42;;;;;;;6.82;2.33;;;;;;;;;;4963524;28;20115;-77
2021/04/11 11:41:12;;;;;;;5.28;2.40;;;;;;;;;;4984220;28;20026;-76
2021/04/11 11:44:01;;;;;;;7.68;2.72;;;;;;;;;;4978226;28;20129;-81
2021/04/11 11:46:27;;;;;;;6.38;2.30;;;;;;;;;;5010096;28;20048;-76
2021/04/11 11:49:14;;;;;;;7.15;2.45;;;;;;;;;;4994962;28;20073;-76
2021/04/11 11:51:49;;;;;;;4.75;1.92;;;;;;;;;;5007328;28;20025;-77
2021/04/11 11:54:18;;;;;;;5.22;2.55;;;;;;;;;;4975994;28;20045;-76
2021/04/11 11:56:56;;;;;;;5.57;2.10;;;;;;;;;;4975745;28;20717;-76
2021/04/11 11:59:31;;;;;;;6.57;2.15;;;;;;;;;;4975630;28;20182;-79
2021/04/11 12:02:06;;;;;;;4.95;2.00;;;;;;;;;;4992020;28;20057;-78
2021/04/11 12:04:51;;;;;;;6.03;2.42;;;;;;;;;;4990282;28;20621;-78
2021/04/11 12:07:19;;;;;;;8.30;2.30;;;;;;;;;;4973831;28;20380;-84
2021/04/11 12:09:48;;;;;;;5.07;2.20;;;;;;;;;;4992464;28;20467;-82
2021/04/11 12:12:26;;;;;;;4.20;1.60;;;;;;;;;;4993235;28;20022;-79
2021/04/11 12:14:55;;;;;;;4.00;1.73;;;;;;;;;;4992991;28;20034;-81
2021/04/11 12:17:21;;;;;;;8.70;2.38;;;;;;;;;;4992941;28;20109;-80
2021/04/11 12:19:52;;;;;;;8.77;2.75;;;;;;;;;;4975337;28;20141;-82
2021/04/11 12:22:18;;;;;;;6.18;2.17;;;;;;;;;;4974364;28;20049;-76
2021/04/11 12:24:55;;;;;;;5.40;1.80;;;;;;;;;;4974729;28;20034;-80
2021/04/11 12:27:30;;;;;;;6.93;2.20;;;;;;;;;;4975226;28;20084;-89
2021/04/11 12:29:58;;;;;;;5.32;2.28;;;;;;;;;;4974884;28;20033;-81
2021/04/11 12:32:30;;;;;;;7.43;2.25;;;;;;;;;;4974535;28;20015;-78
2021/04/11 12:35:21;;;;;;;5.50;2.55;;;;;;;;;;4991803;28;20089;-83
2021/04/11 12:37:54;;;;;;;5.97;2.30;;;;;;;;;;4974374;28;20041;-78
2021/04/11 12:40:20;;;;;;;;;;;;;;;;;;4992592;28;20113;-77
2021/04/11 12:42:49;;;;;;;5.78;2.60;;;;;;;;;;4974311;28;19972;-79
2021/04/11 12:45:15;;;;;;;6.32;2.35;;;;;;;;;;4974475;28;20029;-78
2021/04/11 12:47:46;;;;;;;6.97;2.90;;;;;;;;;;4974262;28;20030;-78
2021/04/11 12:50:23;;;;;;;8.77;2.33;;;;;;;;;;4977149;28;20029;-79
2021/04/11 12:52:52;;;;;;;7.38;2.90;;;;;;;;;;4974359;28;20097;-80
2021/04/11 12:55:23;;;;;;;5.97;2.78;;;;;;;;;;5009475;28;20053;-80
2021/04/11 12:58:07;;;;;;;4.88;2.50;;;;;;;;;;5011174;28;20033;-81
2021/04/11 13:00:35;;;;;;;6.95;2.38;;;;;;;;;;4998851;28;20558;-79
2021/04/11 13:03:13;;;;;;;6.80;2.70;;;;;;;;;;4991931;28;20423;-80
2021/04/11 13:05:39;;;;;;;5.10;2.33;;;;;;;;;;4979869;28;20035;-81
2021/04/11 13:08:08;;;;;;;6.07;2.45;;;;;;;;;;4970903;28;20026;-79
2021/04/11 13:10:39;;;;;;;5.93;2.15;;;;;;;;;;4988778;28;20030;-78
2021/04/11 13:13:05;;;;;;;7.18;2.53;;;;;;;;;;5014345;28;20010;-80
2021/04/11 13:15:37;;;;;;;6.13;2.28;;;;;;;;;;5015647;28;20033;-87
2021/04/11 13:18:12;;;;;;;9.10;2.67;;;;;;;;;;4981476;28;20015;-77
2021/04/11 13:20:38;;;;;;;8.75;2.80;;;;;;;;;;4996154;28;20022;-78
2021/04/11 13:23:22;;;;;;;5.63;2.42;;;;;;;;;;4996020;28;20057;-79
2021/04/11 13:26:00;;;;;;;5.63;2.15;;;;;;;;;;4995706;28;20030;-82
2021/04/11 13:28:38;;;;;;;6.78;2.17;;;;;;;;;;4977853;28;20050;-85
2021/04/11 13:31:09;;;;;;;8.48;2.50;;;;;;;;;;4998388;28;20026;-76
2021/04/11 13:33:44;;;;;;;5.95;2.30;;;;;;;;;;4995461;28;20109;-74
2021/04/11 13:36:23;;;;;;;5.88;1.73;;;;;;;;;;4977702;28;20034;-78
2021/04/11 13:38:55;;;;;;;7.78;2.40;;;;;;;;;;4977822;28;20026;-75
2021/04/11 13:41:43;;;;;;;6.07;2.45;;;;;;;;;;4977509;28;20506;-74
2021/04/11 13:44:21;;;;;;;4.97;2.17;;;;;;;;;;4977676;28;20030;-73
2021/04/11 13:46:52;;;;;;;6.82;2.35;;;;;;;;;;4978199;28;20022;-78
2021/04/11 13:49:23;;;;;;;7.63;2.53;;;;;;;;;;4995206;28;20034;-76
2021/04/11 13:51:49;;;;;;;6.35;2.80;;;;;;;;;;4995135;28;20025;-81
2021/04/11 13:54:15;;;;;;;6.45;2.63;;;;;;;;;;4995464;28;20030;-79
2021/04/11 13:56:41;;;;;;;7.72;2.38;;;;;;;;;;4978199;28;20096;-79
2021/04/11 13:59:16;;;;;;;6.22;2.92;;;;;;;;;;4995317;28;20534;-77
2021/04/11 14:01:47;;;;;;;8.60;2.30;;;;;;;;;;4977499;28;20041;-79
2021/04/11 14:04:22;;;;;;;10.45;2.60;;;;;;;;;;4977842;28;20140;-80
2021/04/11 14:06:53;;;;;;;5.68;2.22;;;;;;;;;;4974233;28;20384;-81
2021/04/11 14:09:40;;;;;;;5.90;2.47;;;;;;;;;;4994157;28;20031;-85
2021/04/11 14:12:11;;;;;;;7.20;2.20;;;;;;;;;;4977251;28;20073;-80
2021/04/11 14:14:50;;;;;;;7.90;2.38;;;;;;;;;;4976768;28;20383;-78
2021/04/11 14:17:21;;;;;;;5.78;2.13;;;;;;;;;;4994520;28;20116;-78
2021/04/11 14:20:05;;;;;;;7.72;2.72;;;;;;;;;;4977437;28;20026;-78
2021/04/11 14:22:36;;;;;;;5.25;2.42;;;;;;;;;;4983247;28;20056;-79
2021/04/11 14:25:11;;;;;;;6.47;2.80;;;;;;;;;;4984205;28;20507;-77
2021/04/11 14:27:37;;;;;;;7.10;2.38;;;;;;;;;;4995979;28;20057;-77
2021/04/11 14:30:13;;;;;;;5.90;2.60;;;;;;;;;;4981082;28;20034;-76
2021/04/11 14:32:39;;;;;;;6.70;2.63;;;;;;;;;;4976817;28;20494;-78
2021/04/11 14:35:15;;;;;;;7.63;2.50;;;;;;;;;;4980688;28;20363;-79
2021/04/11 14:38:00;;;;;;;9.50;2.45;;;;;;;;;;4993730;28;20104;-78
2021/04/11 14:40:30;;;;;;;7.28;2.58;;;;;;;;;;5014068;28;20029;-78
2021/04/11 14:43:11;;;;;;;6.68;2.55;;;;;;;;;;4998769;28;20022;-78
2021/04/11 14:46:00;;;;;;;10.93;3.00;;;;;;;;;;4994440;28;20018;-83
2021/04/11 14:48:31;;;;;;;10.98;2.72;;;;;;;;;;4966477;28;20038;-77
2021/04/11 14:51:17;;;;;;;7.38;2.88;;;;;;;;;;4976288;28;20497;-78
2021/04/11 14:53:48;;;;;;;6.90;2.45;;;;;;;;;;4937017;28;20434;-78
2021/04/11 14:56:23;;;;;;;7.72;2.67;;;;;;;;;;4993625;28;20039;-81
2021/04/11 14:59:08;;;;;;;6.13;2.83;;;;;;;;;;4975913;28;20023;-79
2021/04/11 15:01:52;;;;;;;7.00;2.65;;;;;;;;;;4975988;28;20026;-78
2021/04/11 15:04:28;;;;;;;7.43;2.78;;;;;;;;;;4975194;28;20018;-76
2021/04/11 15:07:12;;;;;;;6.85;2.85;;;;;;;;;;4974141;28;20055;-77
2021/04/11 15:09:46;;;;;;;6.80;2.35;;;;;;;;;;4973641;28;20026;-78
2021/04/11 15:12:18;;;;;;;8.30;2.40;;;;;;;;;;4974038;28;20558;-80